Time;durP1;ratioP1;P1;durP2;ratioP2;P2;SDS_P1;SDS_P2;PMS_P1;PMS_P2;Temp;Humidity;BMP_temperature;BMP_pressure;BME280_temperature;BME280_humidity;BME280_pressure;Samples;Min_cycle;Max_cycle;Signal;HPM_P1;HPM_P2
2021/06/17 00:00:22;;;;;;;5.53;4.50;;;20.70;99.90;;;;;;5115920;28;20463;-67
2021/06/17 00:02:49;;;;;;;5.20;4.70;;;20.70;99.90;;;;;;5116098;28;20476;-67
2021/06/17 00:05:17;;;;;;;5.20;4.70;;;20.80;99.90;;;;;;5114504;28;20432;-67
2021/06/17 00:07:43;;;;;;;8.40;5.60;;;20.50;99.90;;;;;;5116314;28;20416;-68
2021/06/17 00:10:37;;;;;;;5.73;5.00;;;20.50;99.90;;;;;;5115572;28;20412;-66
2021/06/17 00:13:08;;;;;;;7.80;4.77;;;20.40;99.90;;;;;;5112026;28;20523;-66
2021/06/17 00:15:36;;;;;;;5.47;4.43;;;20.30;99.90;;;;;;5114317;28;20470;-71
2021/06/17 00:18:02;;;;;;;5.03;4.63;;;20.40;99.90;;;;;;5114501;28;20431;-67
2021/06/17 00:20:29;;;;;;;9.50;5.10;;;20.40;99.90;;;;;;5115499;28;20428;-68
2021/06/17 00:22:56;;;;;;;6.70;4.30;;;20.40;99.90;;;;;;5115801;28;20475;-67
2021/06/17 00:25:21;;;;;;;6.77;5.00;;;20.40;99.90;;;;;;5113692;28;20835;-68
2021/06/17 00:27:47;;;;;;;6.83;5.30;;;20.40;99.90;;;;;;5113730;28;20505;-68
2021/06/17 00:30:13;;;;;;;5.53;4.77;;;20.40;99.90;;;;;;5114018;28;20200;-67
2021/06/17 00:32:40;;;;;;;7.03;4.80;;;20.50;99.90;;;;;;5115685;28;20171;-67
2021/06/17 00:35:07;;;;;;;7.13;5.17;;;20.50;99.90;;;;;;5115148;28;20498;-67
2021/06/17 00:37:32;;;;;;;5.80;4.73;;;20.50;99.90;;;;;;5113962;28;20420;-69
2021/06/17 00:39:59;;;;;;;7.07;4.90;;;20.50;99.90;;;;;;5115070;28;20468;-68
2021/06/17 00:42:25;;;;;;;5.83;5.23;;;20.50;99.90;;;;;;5114794;28;20724;-67
2021/06/17 00:44:52;;;;;;;6.30;4.83;;;20.50;99.90;;;;;;5114956;28;20444;-67
2021/06/17 00:47:17;;;;;;;6.20;5.00;;;20.50;99.90;;;;;;5115298;28;20975;-68
2021/06/17 00:49:43;;;;;;;5.70;5.20;;;20.50;99.90;;;;;;5114971;28;20483;-67
2021/06/17 00:52:09;;;;;;;5.20;4.70;;;20.30;99.90;;;;;;5115107;28;20202;-67
2021/06/17 00:54:35;;;;;;;4.70;4.40;;;20.30;99.90;;;;;;5114873;28;20172;-68
2021/06/17 00:57:08;;;;;;;5.90;5.10;;;20.40;99.90;;;;;;5113459;28;20199;-67
2021/06/17 00:59:37;;;;;;;6.10;5.50;;;20.40;99.90;;;;;;5114791;28;20472;-67
2021/06/17 01:02:06;;;;;;;6.70;5.30;;;20.20;99.90;;;;;;5113327;28;20571;-67
2021/06/17 01:04:32;;;;;;;5.20;4.70;;;20.30;99.90;;;;;;5114656;28;20488;-68
2021/06/17 01:06:57;;;;;;;9.70;5.00;;;20.20;99.90;;;;;;5114795;28;20873;-68
2021/06/17 01:10:02;;;;;;;5.90;4.90;;;20.20;99.90;;;;;;5114730;28;20435;-68
2021/06/17 01:12:56;;;;;;;4.43;4.10;;;20.20;99.90;;;;;;5113511;28;20277;-67
2021/06/17 01:15:23;;;;;;;5.50;4.87;;;20.20;99.90;;;;;;5114516;28;20428;-66
2021/06/17 01:17:57;;;;;;;5.23;4.70;;;20.20;99.90;;;;;;5113126;28;20785;-68
2021/06/17 01:20:28;;;;;;;5.20;4.80;;;20.20;99.90;;;;;;5114499;28;20436;-67
2021/06/17 01:23:27;;;;;;;6.43;5.43;;;20.10;99.90;;;;;;5113016;28;20842;-67
2021/06/17 01:26:09;;;;;;;7.50;5.50;;;20.00;99.90;;;;;;5113024;28;20534;-68
2021/06/17 01:28:37;;;;;;;6.50;5.90;;;19.90;99.90;;;;;;5114440;28;20396;-67
2021/06/17 01:31:09;;;;;;;5.23;4.80;;;19.90;99.90;;;;;;5114148;28;20435;-67
2021/06/17 01:33:41;;;;;;;6.43;5.30;;;19.90;99.90;;;;;;5114335;28;20908;-68
2021/06/17 01:36:20;;;;;;;5.70;5.10;;;19.90;99.90;;;;;;5112860;28;21283;-66
2021/06/17 01:38:50;;;;;;;5.03;4.63;;;19.90;99.90;;;;;;5114159;28;20443;-68
2021/06/17 01:41:17;;;;;;;6.63;5.97;;;20.00;99.90;;;;;;5112650;28;20489;-67
2021/06/17 01:43:44;;;;;;;6.60;6.03;;;20.00;99.90;;;;;;5114130;28;20428;-67
2021/06/17 01:46:11;;;;;;;5.20;4.70;;;20.00;99.90;;;;;;5112824;28;20447;-66
2021/06/17 01:48:37;;;;;;;6.70;6.10;;;20.00;99.90;;;;;;5114100;28;20442;-67
2021/06/17 01:51:03;;;;;;;6.90;6.20;;;19.90;99.90;;;;;;5113962;28;20422;-67
2021/06/17 01:53:29;;;;;;;6.13;5.53;;;19.90;99.90;;;;;;5112815;28;20950;-67
2021/06/17 01:55:57;;;;;;;5.77;5.27;;;19.90;99.90;;;;;;5113852;28;20192;-67
2021/06/17 01:58:25;;;;;;;7.43;5.23;;;19.80;99.90;;;;;;5114051;28;20410;-68
2021/06/17 02:00:51;;;;;;;8.07;5.73;;;19.80;99.90;;;;;;5112577;28;20454;-67
2021/06/17 02:03:19;;;;;;;5.97;5.47;;;19.90;99.90;;;;;;5112719;28;20991;-67
2021/06/17 02:05:47;;;;;;;7.60;5.50;;;19.90;99.90;;;;;;5113779;28;20442;-68
2021/06/17 02:08:15;;;;;;;6.17;5.63;;;19.70;99.90;;;;;;5113954;28;20424;-67
2021/06/17 02:10:43;;;;;;;8.03;6.00;;;19.70;99.90;;;;;;5113827;28;20890;-68
2021/06/17 02:13:13;;;;;;;8.23;7.00;;;19.60;99.90;;;;;;5114369;28;20775;-67
2021/06/17 02:15:41;;;;;;;5.53;5.10;;;19.50;99.90;;;;;;5112521;28;20441;-67
2021/06/17 02:18:08;;;;;;;8.30;7.57;;;19.60;99.90;;;;;;5114347;28;20427;-67
2021/06/17 02:20:34;;;;;;;7.03;6.43;;;19.60;99.90;;;;;;5112457;28;20430;-67
2021/06/17 02:23:04;;;;;;;8.97;6.97;;;19.50;99.90;;;;;;5114271;28;20978;-67
2021/06/17 02:25:32;;;;;;;6.53;6.00;;;19.60;99.90;;;;;;5113845;28;20509;-67
2021/06/17 02:28:03;;;;;;;8.27;6.50;;;19.50;99.90;;;;;;5114263;28;20920;-67
2021/06/17 02:30:32;;;;;;;10.20;6.63;;;19.40;99.90;;;;;;5113749;28;20802;-67
2021/06/17 02:33:01;;;;;;;6.40;5.80;;;19.30;99.90;;;;;;5114220;28;20454;-67
2021/06/17 02:35:28;;;;;;;12.47;9.13;;;19.30;99.90;;;;;;5113663;28;20469;-68
2021/06/17 02:37:57;;;;;;;7.03;6.43;;;19.30;99.90;;;;;;5113605;28;20419;-66
2021/06/17 02:40:26;;;;;;;7.80;6.90;;;19.30;99.90;;;;;;5113560;28;20460;-67
2021/06/17 02:42:53;;;;;;;7.80;7.10;;;19.30;99.90;;;;;;5113432;28;20523;-67
2021/06/17 02:45:22;;;;;;;9.60;7.30;;;19.20;99.90;;;;;;5113547;28;20750;-66
2021/06/17 02:47:48;;;;;;;8.03;7.30;;;19.10;99.90;;;;;;5113970;28;20903;-68
2021/06/17 02:50:14;;;;;;;11.37;6.30;;;19.00;99.90;;;;;;5115773;28;20422;-67
2021/06/17 02:52:40;;;;;;;6.70;6.03;;;19.10;99.90;;;;;;5117756;28;20532;-66
2021/06/17 02:55:07;;;;;;;6.60;6.00;;;19.10;99.90;;;;;;5117169;28;20399;-68
2021/06/17 02:57:52;;;;;;;11.70;7.10;;;19.10;99.90;;;;;;5117444;28;20423;-67
2021/06/17 03:00:20;;;;;;;11.10;7.00;;;19.10;99.90;;;;;;5117086;28;20425;-67
2021/06/17 03:03:01;;;;;;;7.73;7.03;;;19.00;99.90;;;;;;5115603;28;20474;-67
2021/06/17 03:05:34;;;;;;;6.70;6.10;;;19.00;99.90;;;;;;5116951;28;20426;-68
2021/06/17 03:08:30;;;;;;;8.17;6.90;;;19.10;99.90;;;;;;5117551;28;20940;-68
2021/06/17 03:11:04;;;;;;;10.50;7.37;;;19.10;99.90;;;;;;5115543;28;20454;-67
2021/06/17 03:13:32;;;;;;;12.40;8.07;;;19.00;99.90;;;;;;5116923;28;20399;-67
2021/06/17 03:15:58;;;;;;;9.33;7.13;;;18.90;99.90;;;;;;5116734;28;20528;-67
2021/06/17 03:18:25;;;;;;;8.30;7.23;;;18.90;99.90;;;;;;5116820;28;20417;-68
2021/06/17 03:20:54;;;;;;;9.13;7.20;;;18.90;99.90;;;;;;5115281;28;20430;-67
2021/06/17 03:23:23;;;;;;;10.20;7.60;;;19.00;99.90;;;;;;5116659;28;20999;-67
2021/06/17 03:25:54;;;;;;;7.90;7.20;;;19.00;99.90;;;;;;5115136;28;20426;-68
2021/06/17 03:28:21;;;;;;;8.40;7.53;;;19.00;99.90;;;;;;5116592;28;20395;-67
2021/06/17 03:30:49;;;;;;;7.70;6.67;;;19.00;99.90;;;;;;5116508;28;20989;-68
2021/06/17 03:33:19;;;;;;;8.30;7.50;;;19.00;99.90;;;;;;5115231;28;20414;-66
2021/06/17 03:35:46;;;;;;;7.30;6.60;;;19.00;99.90;;;;;;5116701;28;20453;-67
2021/06/17 03:38:13;;;;;;;8.93;6.90;;;19.00;99.90;;;;;;5116920;28;20915;-67
2021/06/17 03:40:41;;;;;;;8.50;7.70;;;19.00;99.90;;;;;;5116237;28;20434;-66
2021/06/17 03:43:07;;;;;;;10.70;7.73;;;19.10;99.90;;;;;;5116035;28;20495;-67
2021/06/17 03:45:34;;;;;;;8.60;7.40;;;19.00;99.90;;;;;;5116221;28;20970;-67
2021/06/17 03:48:00;;;;;;;8.80;7.90;;;19.10;99.90;;;;;;5116778;28;20521;-66
2021/06/17 03:50:26;;;;;;;8.20;7.40;;;19.00;99.90;;;;;;5114834;28;20953;-66
2021/06/17 03:52:55;;;;;;;7.20;6.60;;;19.10;99.90;;;;;;5116010;28;20508;-68
2021/06/17 03:55:22;;;;;;;8.40;7.57;;;19.10;99.90;;;;;;5114497;28;20570;-69
2021/06/17 03:57:50;;;;;;;7.70;7.00;;;19.20;99.90;;;;;;5113640;28;20434;-67
2021/06/17 04:00:17;;;;;;;7.87;7.00;;;19.20;99.90;;;;;;5114143;28;20441;-68
2021/06/17 04:02:43;;;;;;;12.90;7.53;;;19.30;99.90;;;;;;5115767;28;20473;-66
2021/06/17 04:05:10;;;;;;;11.70;7.47;;;19.30;99.90;;;;;;5115075;28;20426;-69
2021/06/17 04:07:39;;;;;;;7.93;7.20;;;19.30;99.90;;;;;;5116001;28;20428;-66
2021/06/17 04:10:07;;;;;;;10.70;8.50;;;19.40;99.90;;;;;;5113728;28;20411;-67
2021/06/17 04:12:35;;;;;;;9.00;7.10;;;19.40;99.90;;;;;;5114183;28;20515;-68
2021/06/17 04:15:02;;;;;;;10.80;8.37;;;19.50;99.90;;;;;;5115144;28;20401;-66
2021/06/17 04:17:50;;;;;;;8.63;7.73;;;19.50;99.90;;;;;;5114936;28;20860;-68
2021/06/17 04:20:22;;;;;;;8.60;7.70;;;19.60;99.90;;;;;;5114018;28;20505;-67
2021/06/17 04:22:50;;;;;;;9.83;7.63;;;19.60;99.90;;;;;;5114319;27;20569;-68
2021/06/17 04:25:19;;;;;;;8.50;7.70;;;19.70;99.90;;;;;;5117019;27;20945;-68
2021/06/17 04:27:46;;;;;;;11.40;7.67;;;19.70;99.90;;;;;;5115205;27;20430;-67
2021/06/17 04:30:14;;;;;;;10.27;8.00;;;19.70;99.90;;;;;;5113415;27;20963;-67
2021/06/17 04:32:42;;;;;;;13.13;8.53;;;19.80;99.90;;;;;;5113855;28;20787;-68
2021/06/17 04:35:10;;;;;;;8.73;7.83;;;19.90;99.90;;;;;;5114440;27;20446;-67
2021/06/17 04:37:36;;;;;;;8.83;7.90;;;19.90;99.90;;;;;;5115218;28;20468;-68
2021/06/17 04:40:02;;;;;;;9.53;7.63;;;19.90;99.90;;;;;;5113215;27;20457;-69
2021/06/17 04:42:29;;;;;;;9.00;7.70;;;20.00;99.90;;;;;;5114406;28;20489;-67
2021/06/17 04:44:56;;;;;;;8.10;7.40;;;20.00;99.90;;;;;;5114495;28;20437;-67
2021/06/17 04:47:22;;;;;;;10.30;9.30;;;20.20;99.90;;;;;;5114023;28;20836;-68
2021/06/17 04:49:52;;;;;;;8.57;7.77;;;20.30;99.90;;;;;;5114250;28;20423;-67
2021/06/17 04:52:39;;;;;;;10.73;8.10;;;20.30;99.90;;;;;;5114925;28;20463;-67
2021/06/17 04:55:06;;;;;;;8.47;7.77;;;20.40;99.90;;;;;;5081278;28;20443;-68
2021/06/17 04:57:32;;;;;;;10.40;9.37;;;20.50;99.90;;;;;;5113585;28;20468;-67
2021/06/17 04:59:57;;;;;;;8.93;7.60;;;20.80;99.90;;;;;;5116925;27;20475;-67
2021/06/17 05:02:23;;;;;;;8.77;7.67;;;20.90;99.90;;;;;;5113718;28;20223;-67
2021/06/17 05:04:49;;;;;;;8.50;7.17;;;20.90;99.90;;;;;;5109967;28;20262;-68
2021/06/17 05:12:25;;;;;;;8.57;7.77;;;21.20;99.90;;;;;;5111056;28;20335;-67
2021/06/17 05:14:50;;;;;;;13.90;9.00;;;21.20;99.90;;;;;;5111896;28;20423;-68
2021/06/17 05:17:16;;;;;;;8.03;7.30;;;21.20;99.90;;;;;;5114048;28;20617;-68
2021/06/17 05:19:41;;;;;;;9.67;7.97;;;21.40;99.90;;;;;;5113747;28;20186;-68
2021/06/17 05:22:09;;;;;;;9.33;8.43;;;21.40;99.90;;;;;;5112971;28;20700;-67
2021/06/17 05:24:35;;;;;;;8.40;7.70;;;21.40;99.90;;;;;;5113739;28;20533;-67
2021/06/17 05:27:00;;;;;;;8.73;7.70;;;21.40;99.90;;;;;;5114079;28;20461;-67
2021/06/17 05:29:28;;;;;;;8.57;7.67;;;21.50;99.90;;;;;;5113405;28;20229;-68
2021/06/17 05:31:54;;;;;;;9.13;7.40;;;21.70;99.90;;;;;;5112029;28;20218;-68
2021/06/17 05:34:19;;;;;;;7.90;7.20;;;21.90;99.90;;;;;;5112733;27;20419;-70
2021/06/17 05:36:45;;;;;;;11.47;9.30;;;21.90;99.90;;;;;;5114157;27;20561;-68
2021/06/17 05:39:11;;;;;;;8.50;7.70;;;22.00;99.90;;;;;;5113674;28;20194;-69
2021/06/17 05:41:36;;;;;;;8.40;7.63;;;22.10;99.90;;;;;;5112612;28;20235;-68
2021/06/17 05:44:02;;;;;;;8.40;7.60;;;22.20;99.90;;;;;;5111694;28;20234;-68
2021/06/17 05:46:27;;;;;;;8.83;7.90;;;22.30;99.90;;;;;;5093455;28;20196;-69
2021/06/17 05:48:53;;;;;;;7.97;7.27;;;22.40;99.90;;;;;;5112860;28;20672;-69
2021/06/17 05:51:19;;;;;;;11.50;8.80;;;22.40;99.90;;;;;;5111825;28;20203;-68
2021/06/17 05:53:45;;;;;;;9.47;7.83;;;22.50;99.90;;;;;;5113524;28;20437;-68
2021/06/17 05:56:11;;;;;;;8.57;7.73;;;22.50;99.90;;;;;;5111890;28;20244;-67
2021/06/17 05:58:36;;;;;;;9.13;8.07;;;22.40;99.90;;;;;;5111467;28;20512;-68
2021/06/17 06:01:03;;;;;;;9.33;8.23;;;22.70;99.90;;;;;;5111333;28;20199;-68
2021/06/17 06:03:29;;;;;;;8.57;7.60;;;22.90;99.90;;;;;;5109960;28;20563;-69
2021/06/17 06:05:54;;;;;;;8.20;7.40;;;23.00;99.90;;;;;;5111478;28;20440;-68
2021/06/17 06:08:20;;;;;;;8.37;6.50;;;23.50;99.90;;;;;;5111730;28;20532;-69
2021/06/17 06:10:46;;;;;;;9.93;8.10;;;23.70;99.90;;;;;;5111048;28;20206;-68
2021/06/17 06:13:12;;;;;;;9.07;6.97;;;24.20;99.90;;;;;;5111984;28;20191;-68
2021/06/17 06:15:38;;;;;;;8.23;7.50;;;24.20;99.90;;;;;;5110970;28;20199;-66
2021/06/17 06:18:09;;;;;;;10.23;9.23;;;24.10;99.90;;;;;;5113048;28;20420;-67
2021/06/17 06:20:36;;;;;;;8.60;7.80;;;24.30;99.90;;;;;;5112451;27;20442;-68
2021/06/17 06:23:02;;;;;;;7.90;7.10;;;24.40;99.90;;;;;;5113565;28;20554;-69
2021/06/17 06:25:28;;;;;;;8.27;6.40;;;24.40;99.90;;;;;;5115747;27;20439;-69
2021/06/17 06:27:53;;;;;;;8.10;7.27;;;24.70;99.90;;;;;;5116508;28;20516;-67
2021/06/17 06:30:19;;;;;;;7.33;6.70;;;24.70;99.90;;;;;;5114655;28;20233;-66
2021/06/17 06:32:45;;;;;;;9.50;6.93;;;24.70;99.90;;;;;;5116268;28;20184;-67
2021/06/17 06:35:11;;;;;;;7.80;7.00;;;25.00;99.90;;;;;;5114266;27;20442;-67
2021/06/17 06:37:37;;;;;;;7.83;6.93;;;25.20;99.90;;;;;;5113510;28;20188;-68
2021/06/17 06:40:03;;;;;;;13.43;7.13;;;25.00;99.90;;;;;;5114953;28;20538;-69
2021/06/17 06:42:29;;;;;;;7.13;6.13;;;25.30;99.90;;;;;;5114852;27;20575;-68
2021/06/17 06:44:55;;;;;;;7.83;7.10;;;25.40;99.90;;;;;;5115128;28;20855;-67
2021/06/17 06:47:20;;;;;;;7.50;6.70;;;25.40;99.90;;;;;;5113511;28;20190;-67
2021/06/17 06:49:46;;;;;;;8.27;6.27;;;25.50;99.90;;;;;;5114535;28;20181;-68
2021/06/17 06:52:12;;;;;;;12.03;7.23;;;25.50;99.90;;;;;;5116135;28;20259;-67
2021/06/17 06:54:37;;;;;;;7.60;6.30;;;25.60;99.90;;;;;;5116334;27;20184;-69
2021/06/17 06:57:03;;;;;;;9.63;6.77;;;25.60;99.90;;;;;;5116547;28;20204;-68
2021/06/17 06:59:29;;;;;;;7.63;6.97;;;25.70;99.90;;;;;;5115440;28;20184;-69
2021/06/17 07:01:55;;;;;;;11.60;6.70;;;25.80;99.90;;;;;;5115527;28;20469;-67
2021/06/17 07:04:20;;;;;;;8.80;7.10;;;25.80;99.90;;;;;;5116337;28;20229;-68
2021/06/17 07:06:47;;;;;;;10.00;6.40;;;25.90;99.90;;;;;;5115911;28;20665;-67
2021/06/17 07:09:13;;;;;;;7.30;6.53;;;26.00;99.90;;;;;;5116567;28;20180;-69
2021/06/17 07:11:39;;;;;;;8.43;6.70;;;26.10;99.90;;;;;;5115273;28;20450;-68
2021/06/17 07:14:06;;;;;;;8.30;6.50;;;26.10;99.90;;;;;;5116574;28;20466;-69
2021/06/17 07:16:33;;;;;;;6.67;5.70;;;26.10;99.90;;;;;;5113996;27;20201;-67
2021/06/17 07:18:58;;;;;;;6.17;5.57;;;26.10;99.90;;;;;;5114930;28;20512;-68
2021/06/17 07:21:24;;;;;;;8.97;6.40;;;26.20;99.90;;;;;;5115185;27;20536;-68
2021/06/17 07:23:51;;;;;;;7.17;6.53;;;26.20;99.90;;;;;;5112390;27;20210;-68
2021/06/17 07:26:19;;;;;;;7.17;6.47;;;26.30;99.90;;;;;;5114443;28;20333;-69
2021/06/17 07:28:45;;;;;;;6.70;6.10;;;26.40;99.90;;;;;;5114105;28;21024;-67
2021/06/17 07:31:10;;;;;;;7.10;6.50;;;26.40;99.90;;;;;;5113396;27;20477;-69
2021/06/17 07:33:36;;;;;;;7.10;6.40;;;26.50;99.90;;;;;;5117702;27;20188;-69
2021/06/17 07:36:02;;;;;;;6.87;6.27;;;26.60;99.90;;;;;;5111899;27;20335;-68
2021/06/17 07:38:27;;;;;;;8.30;7.60;;;26.50;99.90;;;;;;5108800;28;20193;-69
2021/06/17 07:40:53;;;;;;;7.60;6.90;;;26.70;99.90;;;;;;5111056;27;20234;-67
2021/06/17 07:43:18;;;;;;;6.90;6.30;;;26.70;99.90;;;;;;5112188;27;20222;-68
2021/06/17 07:45:44;;;;;;;7.67;6.60;;;26.60;99.90;;;;;;5113280;28;20240;-68
2021/06/17 07:48:11;;;;;;;6.40;5.80;;;26.60;99.90;;;;;;5114391;27;20186;-68
2021/06/17 07:50:38;;;;;;;7.17;6.30;;;26.70;99.90;;;;;;5112432;27;20195;-67
2021/06/17 07:53:04;;;;;;;6.87;5.60;;;26.90;99.90;;;;;;5108754;27;20446;-66
2021/06/17 07:55:29;;;;;;;6.97;6.20;;;27.00;99.90;;;;;;5114345;27;20435;-69
2021/06/17 07:57:55;;;;;;;6.73;6.00;;;27.00;99.90;;;;;;5111915;28;20194;-66
2021/06/17 08:00:20;;;;;;;6.00;5.40;;;26.90;99.90;;;;;;5104487;27;20635;-67
2021/06/17 08:02:46;;;;;;;7.07;6.47;;;26.90;99.90;;;;;;5108057;28;20691;-66
2021/06/17 08:05:12;;;;;;;11.23;5.93;;;27.00;99.90;;;;;;5113195;27;20549;-66
2021/06/17 08:07:37;;;;;;;6.53;5.73;;;27.10;99.90;;;;;;5114794;28;20184;-69
2021/06/17 08:10:06;;;;;;;5.57;5.07;;;27.20;99.90;;;;;;5114949;27;20172;-68
2021/06/17 08:12:32;;;;;;;5.97;5.43;;;27.10;99.80;;;;;;5111838;27;20252;-66
2021/06/17 08:14:58;;;;;;;6.50;5.90;;;27.10;99.90;;;;;;5112517;28;20428;-66
2021/06/17 08:17:23;;;;;;;7.90;6.00;;;27.20;99.60;;;;;;5113303;28;20191;-67
2021/06/17 08:19:49;;;;;;;8.20;6.63;;;27.10;99.90;;;;;;5111116;28;20179;-68
2021/06/17 08:22:15;;;;;;;6.40;5.77;;;27.20;99.90;;;;;;5111491;28;20211;-66
2021/06/17 08:24:43;;;;;;;7.67;5.93;;;27.40;99.90;;;;;;5112477;28;20713;-67
2021/06/17 08:27:10;;;;;;;6.07;5.57;;;27.50;99.60;;;;;;5126813;27;20204;-68
2021/06/17 08:29:35;;;;;;;6.53;5.93;;;27.50;99.20;;;;;;5110785;27;20470;-66
2021/06/17 08:32:01;;;;;;;7.00;6.27;;;27.50;99.50;;;;;;5113096;28;20455;-67
2021/06/17 08:34:28;;;;;;;7.23;6.43;;;27.50;99.90;;;;;;5113148;28;20605;-66
2021/06/17 08:36:54;;;;;;;7.00;6.40;;;27.70;99.90;;;;;;5106939;28;20199;-68
2021/06/17 08:39:19;;;;;;;9.10;6.70;;;27.80;99.00;;;;;;5111970;28;20788;-66
2021/06/17 08:41:46;;;;;;;6.90;6.30;;;27.80;99.90;;;;;;5111690;28;20610;-67
2021/06/17 08:44:11;;;;;;;8.97;7.00;;;27.90;99.50;;;;;;5111058;27;20183;-66
2021/06/17 08:46:40;;;;;;;6.77;5.90;;;28.00;99.90;;;;;;5112259;27;20451;-64
2021/06/17 08:49:08;;;;;;;7.90;6.70;;;28.30;98.90;;;;;;5106198;28;20167;-66
2021/06/17 08:51:35;;;;;;;6.70;5.70;;;28.30;98.60;;;;;;5109273;28;20462;-64
2021/06/17 08:54:01;;;;;;;6.30;5.80;;;28.30;99.10;;;;;;5112410;28;20419;-67
2021/06/17 08:56:27;;;;;;;6.50;5.90;;;28.30;98.00;;;;;;5108717;27;20992;-64
2021/06/17 08:58:55;;;;;;;6.03;5.53;;;28.30;98.50;;;;;;5106170;28;20909;-67
2021/06/17 09:01:21;;;;;;;6.70;5.77;;;28.30;97.60;;;;;;5108068;28;20447;-67
2021/06/17 09:03:47;;;;;;;6.03;5.50;;;28.10;99.90;;;;;;5110455;28;20502;-67
2021/06/17 09:06:17;;;;;;;6.47;5.87;;;28.30;97.80;;;;;;5111314;28;20465;-67
2021/06/17 09:08:55;;;;;;;5.93;5.43;;;28.50;97.10;;;;;;5109299;27;20424;-68
2021/06/17 09:11:21;;;;;;;6.23;5.63;;;28.40;97.10;;;;;;5110895;28;20466;-67
2021/06/17 09:13:47;;;;;;;6.40;5.90;;;28.50;99.40;;;;;;5111064;28;20416;-67
2021/06/17 09:16:27;;;;;;;7.07;6.57;;;28.70;98.10;;;;;;5111218;28;20687;-64
2021/06/17 09:18:53;;;;;;;6.27;5.77;;;28.90;96.60;;;;;;5108673;28;20455;-67
2021/06/17 09:21:19;;;;;;;5.83;5.33;;;28.80;96.50;;;;;;5111298;28;20498;-66
2021/06/17 09:23:48;;;;;;;5.67;5.27;;;28.70;97.40;;;;;;5111192;28;20874;-68
2021/06/17 09:26:22;;;;;;;5.10;4.70;;;28.80;96.20;;;;;;5111254;28;20210;-65
2021/06/17 09:29:05;;;;;;;6.10;5.50;;;29.00;96.20;;;;;;5107355;28;20433;-67
2021/06/17 09:31:37;;;;;;;10.13;4.93;;;28.90;98.20;;;;;;5098016;28;20550;-65
2021/06/17 09:34:06;;;;;;;5.90;5.23;;;29.10;96.70;;;;;;5111557;28;20433;-65
2021/06/17 09:36:35;;;;;;;5.50;5.00;;;29.10;95.70;;;;;;5111944;28;20449;-65
2021/06/17 09:39:09;;;;;;;5.23;4.93;;;29.10;95.60;;;;;;5109956;28;21054;-67
2021/06/17 09:41:39;;;;;;;6.37;5.77;;;29.20;95.40;;;;;;5109338;28;20839;-66
2021/06/17 09:44:26;;;;;;;7.97;4.97;;;29.30;95.90;;;;;;5107630;28;20472;-66
2021/06/17 09:47:11;;;;;;;5.40;5.00;;;29.50;95.00;;;;;;5111426;28;20961;-67
2021/06/17 09:49:42;;;;;;;4.87;4.33;;;29.30;96.10;;;;;;5109830;28;20423;-68
2021/06/17 09:52:09;;;;;;;4.97;4.67;;;29.40;94.90;;;;;;5109176;28;20514;-66
2021/06/17 09:54:39;;;;;;;6.73;4.80;;;29.40;95.20;;;;;;5112716;28;20427;-66
2021/06/17 09:57:15;;;;;;;5.60;5.10;;;29.30;94.60;;;;;;5112298;28;20933;-65
2021/06/17 09:59:46;;;;;;;5.00;4.60;;;29.20;94.60;;;;;;5108924;28;20436;-67
2021/06/17 10:02:22;;;;;;;6.20;4.67;;;29.50;94.90;;;;;;5107115;28;20486;-65
2021/06/17 10:04:48;;;;;;;5.40;5.00;;;29.70;94.10;;;;;;5115750;27;20915;-65
2021/06/17 10:07:17;;;;;;;5.53;5.03;;;29.80;94.90;;;;;;5116046;28;20422;-65
2021/06/17 10:09:44;;;;;;;4.80;4.40;;;29.90;94.70;;;;;;5115002;28;20404;-65
2021/06/17 10:12:10;;;;;;;4.50;4.20;;;30.00;94.20;;;;;;5106827;28;20440;-68
2021/06/17 10:14:36;;;;;;;4.80;4.40;;;30.10;93.90;;;;;;5095815;28;20398;-68
2021/06/17 10:17:04;;;;;;;4.20;3.90;;;30.00;94.00;;;;;;5097425;28;20454;-66
2021/06/17 10:19:32;;;;;;;4.50;4.10;;;30.30;94.00;;;;;;5114438;27;20209;-66
2021/06/17 10:21:58;;;;;;;7.60;4.80;;;30.30;93.20;;;;;;5116019;27;20503;-65
2021/06/17 10:24:26;;;;;;;4.67;4.17;;;30.40;93.10;;;;;;5116254;27;20422;-68
2021/06/17 10:27:06;;;;;;;4.40;4.00;;;30.20;93.00;;;;;;5108974;28;20836;-65
2021/06/17 10:29:36;;;;;;;4.80;4.10;;;29.90;92.40;;;;;;5108282;28;20889;-65
2021/06/17 10:32:05;;;;;;;6.13;4.10;;;30.20;92.40;;;;;;5113312;28;20454;-65
2021/06/17 10:34:34;;;;;;;4.77;3.93;;;30.40;92.40;;;;;;5104601;28;20445;-67
2021/06/17 10:37:30;;;;;;;4.33;4.03;;;30.60;92.30;;;;;;5099169;28;20447;-67
2021/06/17 10:40:04;;;;;;;7.87;4.07;;;30.60;91.80;;;;;;5114225;28;20431;-67
2021/06/17 10:42:44;;;;;;;4.83;4.43;;;30.50;91.50;;;;;;5105729;28;20485;-68
2021/06/17 10:45:12;;;;;;;4.40;4.00;;;30.70;90.90;;;;;;5099004;27;20511;-68
2021/06/17 10:47:45;;;;;;;4.70;4.20;;;30.80;91.30;;;;;;5116786;28;20877;-66
2021/06/17 10:50:15;;;;;;;4.20;3.80;;;30.90;91.10;;;;;;5116535;28;20443;-69
2021/06/17 10:52:42;;;;;;;5.97;3.90;;;30.90;91.00;;;;;;5110314;27;20483;-67
2021/06/17 10:55:12;;;;;;;4.90;4.50;;;30.90;91.00;;;;;;5113268;28;20453;-69
2021/06/17 10:57:47;;;;;;;7.23;4.37;;;30.90;90.20;;;;;;5115546;28;20472;-66
2021/06/17 11:00:25;;;;;;;4.43;4.03;;;31.00;90.60;;;;;;5109244;28;20458;-65
2021/06/17 11:03:06;;;;;;;4.30;4.00;;;30.50;90.40;;;;;;5110754;28;20475;-68
2021/06/17 11:05:35;;;;;;;4.90;4.50;;;30.70;90.50;;;;;;5113069;28;20454;-69
2021/06/17 11:08:19;;;;;;;5.13;4.73;;;30.60;90.30;;;;;;5113068;28;20441;-66
2021/06/17 11:10:45;;;;;;;6.87;4.70;;;30.70;90.30;;;;;;5103363;28;20497;-70
2021/06/17 11:13:51;;;;;;;4.10;3.83;;;30.80;90.40;;;;;;5115511;27;20437;-66
2021/06/17 11:16:16;;;;;;;5.00;4.60;;;31.10;90.10;;;;;;5113940;28;20967;-65
2021/06/17 11:18:43;;;;;;;5.50;5.00;;;31.00;90.00;;;;;;5111836;27;20435;-66
2021/06/17 11:21:24;;;;;;;4.70;4.30;;;30.90;87.20;;;;;;5109504;28;20207;-65
2021/06/17 11:23:51;;;;;;;4.50;4.10;;;30.30;89.20;;;;;;5110570;28;20585;-68
2021/06/17 11:26:36;;;;;;;4.73;4.30;;;30.70;88.60;;;;;;5112982;28;20535;-65
2021/06/17 11:29:06;;;;;;;4.33;3.93;;;30.90;89.60;;;;;;5113273;28;20402;-67
2021/06/17 11:31:40;;;;;;;4.67;4.27;;;31.20;89.30;;;;;;5111257;28;20452;-65
2021/06/17 11:34:11;;;;;;;4.33;3.97;;;31.40;88.80;;;;;;5112342;28;20421;-68
2021/06/17 11:36:56;;;;;;;5.30;4.80;;;31.30;87.00;;;;;;5111929;28;20488;-65
2021/06/17 11:39:30;;;;;;;4.87;4.47;;;31.30;88.30;;;;;;5108201;28;20435;-65
2021/06/17 11:42:02;;;;;;;4.80;4.40;;;31.30;88.00;;;;;;5109335;28;20523;-67
2021/06/17 11:44:29;;;;;;;4.70;4.33;;;31.40;87.40;;;;;;5111356;27;20478;-65
2021/06/17 11:47:07;;;;;;;9.43;4.90;;;31.50;87.30;;;;;;5109624;28;20475;-65
2021/06/17 11:49:35;;;;;;;4.27;3.97;;;31.40;87.00;;;;;;5103057;27;20424;-67
2021/06/17 11:52:06;;;;;;;4.40;4.00;;;31.40;87.30;;;;;;5110175;28;20957;-67
2021/06/17 11:54:31;;;;;;;4.33;3.93;;;31.40;86.30;;;;;;5113618;28;20475;-67
2021/06/17 11:56:59;;;;;;;5.47;5.07;;;31.50;84.10;;;;;;5115853;27;20856;-67
2021/06/17 11:59:31;;;;;;;4.60;4.30;;;31.50;83.60;;;;;;5112604;28;20551;-66
2021/06/17 12:02:14;;;;;;;6.07;4.43;;;31.50;84.30;;;;;;5112372;27;20454;-65
2021/06/17 12:04:53;;;;;;;6.50;4.90;;;31.50;84.80;;;;;;5111358;28;20412;-68
2021/06/17 12:07:24;;;;;;;5.33;4.80;;;31.60;85.80;;;;;;5105978;28;20444;-65
2021/06/17 12:09:55;;;;;;;4.93;4.53;;;31.70;85.50;;;;;;5110541;28;20436;-65
2021/06/17 12:12:25;;;;;;;4.43;4.03;;;31.80;84.70;;;;;;5112922;27;20789;-66
2021/06/17 12:14:55;;;;;;;4.73;4.40;;;31.90;84.60;;;;;;5110786;28;20511;-67
2021/06/17 12:17:39;;;;;;;4.97;4.53;;;32.10;85.50;;;;;;5109531;28;20430;-67
2021/06/17 12:20:10;;;;;;;4.40;4.00;;;32.10;84.40;;;;;;5106067;28;20429;-68
2021/06/17 12:22:37;;;;;;;9.27;4.80;;;32.10;83.60;;;;;;5101087;28;20680;-67
2021/06/17 12:25:03;;;;;;;11.60;4.90;;;32.20;84.50;;;;;;5106116;27;20725;-67
2021/06/17 12:27:28;;;;;;;4.13;3.80;;;32.10;83.30;;;;;;5106568;27;20801;-68
2021/06/17 12:29:54;;;;;;;4.60;3.90;;;32.20;82.60;;;;;;5105641;27;20416;-67
2021/06/17 12:32:40;;;;;;;4.57;4.00;;;32.20;82.80;;;;;;5109940;28;20510;-68
2021/06/17 12:35:11;;;;;;;5.10;4.40;;;32.30;82.00;;;;;;5112420;27;20179;-68
2021/06/17 12:37:59;;;;;;;5.70;5.20;;;32.30;82.50;;;;;;5111378;28;20445;-67
2021/06/17 12:40:28;;;;;;;4.83;4.43;;;32.40;83.10;;;;;;5111039;28;20524;-67
2021/06/17 12:43:07;;;;;;;5.27;4.87;;;32.50;83.20;;;;;;5111477;28;20479;-67
2021/06/17 12:45:35;;;;;;;5.03;4.57;;;32.40;83.10;;;;;;5111294;28;20459;-67
2021/06/17 12:48:08;;;;;;;4.47;4.07;;;32.50;84.00;;;;;;5111950;28;20430;-66
2021/06/17 12:53:18;;;;;;;5.20;4.80;;;32.40;83.90;;;;;;5112943;28;20403;-67
2021/06/17 12:55:47;;;;;;;5.07;4.57;;;32.50;83.30;;;;;;5111057;28;20946;-67
2021/06/17 12:58:15;;;;;;;6.83;4.67;;;32.60;82.90;;;;;;5111437;28;20190;-68
2021/06/17 13:00:55;;;;;;;6.77;4.90;;;32.30;83.40;;;;;;5111824;28;20445;-66
2021/06/17 13:03:26;;;;;;;4.87;4.43;;;32.10;83.50;;;;;;5111013;28;20501;-67